Lula, Georgia
Current Conditions -  °F | °C
As of 11:53 AM on Thursday 27 Nov 2014 (Local Time) from KGVL Reporting Station
Scattered Clouds Scattered Clouds  
Wind Chill: 38°   Ceiling: Unl
Heat Index: 45°   Visibility: 10mi
Dew Point: 26°   Wind: 15mph
Humidity: 48%   Direction: 320°NW
Pressure: 30.25"   Gusts: 25mph
Location:  34.39°N, 83.67°W
Report Text: KGVL 271653Z AUTO 32013G22KT 290V350 10SM SCT049 07/M03 A3025 RMK AO2 SLP242 T00721033
Loading
Personal Weather Stations






























Interactive Weather Map New forecast layout! Learn more

10-Day Weather Forecast

Advertisements
Track Severe Weather on mobile